Portada
METAR-TAF:

METAR-TAF

Aeroports :

Hyderabad, Índia

latitud: 17-27N, longitud: 078-28E, altitud: 530 m

Observació

L'informe es va fer fa 41 minuts, a les 02:00 UTC
Vent 3 kt del Sud-Est
Temperatura 34°C
Humitat 56%
Pressió 1012 hPa
Visibilitat: 6000 m

METAR: VOHY 200200Z 13003KT 6000 NSC 34/24 Q1012 NOSIG

Hora: 08:11 (02:41 UTC)

Pronòstic

L'informe es va fer fa 41 minuts, a les 02:00 UTC
Pronòstic vàlid del 20 a les 03 UTC al 20 a les 12 UTC
Vent 5 kt del Oest
Visibilitat: 6000 m
Escasses núvols a una alçada de 2000 ft
Evolucionant progressivament
l' 20 a les 05 UTC al 20 a les 07 UTC
Vent 10 kt del Oest/Nord-Oest
Visibilitat: 6000 m
Núvols disperses a una alçada de 1500 ft
Núvols disperses a una alçada de 2500 ft
Temporalment
l' 20 a les 10 UTC al 20 a les 12 UTC
Escasses núvols a una alçada de 3000 ft, Cumulonimbus.

TAF: VOHY 200200Z 2003/2012 26005KT 6000 FEW020 BECMG 2005/2007 29010KT 6000 SCT015 SCT025 TEMPO 2010/2012 FEW030CB

Observacions i pronòstics meteorològics de més de 4000 aeroports (METAR i TAF).

Les estacions disponibles són els punts grocs i vermells al mapa.

Posi el ratolí al punt desitjat per veure el nom de l'estació.

Feu clic per veure les observacions i els pronòstics meteorològics.

Per canviar el mapa: feu clic els botons verds amb una creu de color negre per apropar; al botó verd amb un guió per allunyar la imatge; o en les fletxes verdes per a mapes adjacents.


METAR-TAF: